Terminal Aerodrome Forecast
Issued by NWS

Home | Current Version | Previous Version | Text Only | Print | Product List | Glossary Off
Versions: 1 2 3 4 5 6 7 8 9 10 11 12 13 14 15 16 17 18 19 20 21

000
FTUS43 KBIS 281900 AAA
TAFDIK
TAF AMD
KDIK 281939Z 2820/2918 32027G36KT 6SM BR OVC008
     FM290100 31018G26KT 6SM BR OVC006
     FM290600 32013G18KT 6SM BR OVC010=

USA.gov is the U.S. government's official web portal to all federal, state and local government web resources and services.